Sauk Rapids, Minnesota
Current Conditions -  °F | °C
As of 10:42 AM on Friday 19 Dec 2014 (Local Time) from KSTC Reporting Station
Haze Haze  
Wind Chill: 15°   Ceiling: 600
Heat Index: 24°   Visibility: 3mi
Dew Point: 20°   Wind: 8mph
Humidity: 84%   Direction: 140°SE
Pressure: 30.2"   Gusts: NA
Location:  45.59°N, 94.17°W
Report Text: KSTC 191642Z 14007KT 3SM BR OVC006 M04/M07 A3020 RMK AO2 T10441067
Loading
Personal Weather Stations






























Interactive Weather Map New forecast layout! Learn more

10-Day Weather Forecast

Advertisements
Track Severe Weather on mobile